Altura, MN

2:49 PM CDT on August 23, 2014 (GMT -0500)
Minnesota | Change Station
CLOSE
Current Station
Personal Weather Station
Location: Altura, MN
Elevation: 1165 ft
Nearby Weather Stations

Elev 1165 ft 44.07 °N, 91.94 °W | Updated 5 seconds ago

Overcast
Overcast
78.1 °F
Feels Like 80 °F
N
3.1
Wind Variable Wind from NE
Gusts 6.0 mph

Today
High -- | Low -- °F
--% Chance of Precip.
Yesterday
High -- | Low -- °F
Precip. -- in
6:20 AM 7:59 PM
Waning Crescent, 3% visible
Pressure 29.93 in
Visibility 10.0 miles
Clouds Mostly Cloudy 900 ft
Overcast 1200 ft
Heat Index 80 °F
Dew Point 71 °F
Humidity 78%
Rainfall 0.24 in
Snow Depth Not available.
UV 2 out of 12
Pollen 5.20 out of 12
Air Quality Not available.
Flu Activity Not available.
METAR KONA 231937Z AUTO 14003KT 10SM BKN009 OVC012 25/23 A2993 RMK AO2

More Conditions Fewer Conditions

Pressure 29.93 in
Visibility 10.0 miles
Clouds Mostly Cloudy 900 ft
Overcast 1200 ft
Heat Index 80 °F
Dew Point 71 °F
Humidity 78%
Rainfall 0.24 in
Snow Depth Not available.
UV 2 out of 12
Pollen 5.20 out of 12
Air Quality Not available.
Flu Activity Not available.
METAR KONA 231937Z AUTO 14003KT 10SM BKN009 OVC012 25/23 A2993 RMK AO2

More Conditions Fewer Conditions

10-Day Weather Forecast

Almanac

Astronomy

Aug. 23, 2014 Rise Set
Actual Time 6:20 AM CDT 7:59 PM CDT
Civil Twilight 5:49 AM CDT 8:29 PM CDT
Nautical Twilight 5:12 AM CDT 9:06 PM CDT
Astronomical Twilight 4:32 AM CDT 9:46 PM CDT
Moon 4:35 AM CDT 6:44 PM CDT
Length of Visible Light 14h 39m
Length of Day
13h 38m
Tomorrow will be 2m 50s shorter.
Waning Crescent, 3% of the Moon is Illuminated
Today
Waning Crescent
Aug 25
New
Sep 2
First Quarter
Sep 8
Full
Sep 15
Last Quarter

Today's Extremes

State Highs State Lows

Community

WunderPhotos

Upload Photos

1,746,583 photos uploaded!

WunderBlogs® & News

Nearby

Snow Depth

Station Depth Elevation
No new snow has been reported.

Earthquake Activity

City Distance Mag. Time & Date
No recent earthquake activity has been reported nearby.
Minimum magnitude displayed is 2.5.

Coastal Water Temperatures

Place Temperature
No Stations Reporting

Nearby Weather Stations